createdAt,value
2018-12-17T00:00:28.982Z,0.70
2018-12-17T00:02:55.731Z,0.60
2018-12-17T00:05:22.194Z,0.60
2018-12-17T00:07:48.550Z,0.60
2018-12-17T00:10:14.889Z,0.60
2018-12-17T00:12:41.238Z,0.60
2018-12-17T00:15:08.285Z,0.60
2018-12-17T00:17:49.543Z,0.50
2018-12-17T00:20:15.895Z,0.50
2018-12-17T00:22:42.293Z,0.50
2018-12-17T00:25:08.661Z,0.60
2018-12-17T00:27:35.031Z,0.60
2018-12-17T00:30:01.394Z,0.60
2018-12-17T00:32:27.798Z,0.70
2018-12-17T00:34:54.263Z,0.60
2018-12-17T00:37:20.642Z,0.70
2018-12-17T00:39:47.097Z,0.70
2018-12-17T00:42:13.538Z,0.70
2018-12-17T00:44:39.935Z,0.70
2018-12-17T00:47:06.382Z,0.80
2018-12-17T00:49:32.911Z,0.80
2018-12-17T00:51:59.385Z,0.80
2018-12-17T00:54:25.731Z,0.80
2018-12-17T00:56:52.121Z,0.70
2018-12-17T00:59:18.594Z,0.70
2018-12-17T01:01:45.004Z,0.70
2018-12-17T01:04:12.171Z,0.70
2018-12-17T01:06:38.643Z,0.70
2018-12-17T01:09:05.267Z,0.80
2018-12-17T01:11:31.659Z,0.80
2018-12-17T01:13:58.088Z,0.80
2018-12-17T01:16:24.505Z,0.80
2018-12-17T01:18:50.850Z,0.80
2018-12-17T01:21:17.355Z,0.80
2018-12-17T01:23:43.882Z,0.70
2018-12-17T01:26:10.430Z,0.80
2018-12-17T01:28:37.467Z,0.80
2018-12-17T01:31:04.091Z,0.80
2018-12-17T01:33:30.476Z,0.80
2018-12-17T01:35:57.001Z,0.80
2018-12-17T01:38:23.406Z,0.80
2018-12-17T01:40:49.840Z,0.70
2018-12-17T01:43:16.237Z,0.70
2018-12-17T01:45:42.639Z,0.70
2018-12-17T01:48:09.022Z,0.70
2018-12-17T01:50:35.423Z,0.70
2018-12-17T01:53:01.890Z,0.60
2018-12-17T01:55:28.244Z,0.70
2018-12-17T01:57:54.700Z,0.60
2018-12-17T02:00:21.121Z,0.60
2018-12-17T02:02:47.689Z,0.60
2018-12-17T02:05:14.148Z,0.60
2018-12-17T02:07:40.677Z,0.60
2018-12-17T02:10:07.352Z,0.60
2018-12-17T02:12:33.742Z,0.60
2018-12-17T02:15:00.147Z,0.70
2018-12-17T02:17:26.546Z,0.70
2018-12-17T02:19:53.042Z,0.70
2018-12-17T02:22:19.411Z,0.60
2018-12-17T02:24:45.859Z,0.70
2018-12-17T02:27:12.238Z,0.70
2018-12-17T02:29:39.604Z,0.70
2018-12-17T02:32:05.930Z,0.70
2018-12-17T02:34:32.542Z,0.70
2018-12-17T02:36:58.930Z,0.80
2018-12-17T02:39:25.374Z,0.80
2018-12-17T02:41:51.827Z,0.80
2018-12-17T02:44:18.477Z,0.80
2018-12-17T02:46:44.813Z,0.80
2018-12-17T02:49:11.521Z,0.80
2018-12-17T02:51:38.581Z,0.80
2018-12-17T02:54:04.947Z,0.80
2018-12-17T02:56:31.334Z,0.80
2018-12-17T02:58:57.644Z,0.70
2018-12-17T03:01:24.040Z,0.70
2018-12-17T03:03:50.499Z,0.70
2018-12-17T03:06:16.909Z,0.70
2018-12-17T03:08:43.268Z,0.60
2018-12-17T03:11:09.685Z,0.60
2018-12-17T03:13:36.083Z,0.60
2018-12-17T03:16:02.439Z,0.60
2018-12-17T03:18:28.880Z,0.60
2018-12-17T03:20:55.242Z,0.60
2018-12-17T03:23:21.590Z,0.60
2018-12-17T03:25:48.009Z,0.60
2018-12-17T03:28:14.353Z,0.70
2018-12-17T03:30:40.700Z,0.60
2018-12-17T03:33:07.109Z,0.60
2018-12-17T03:35:33.582Z,0.50
2018-12-17T03:38:00.035Z,0.50
2018-12-17T03:40:26.459Z,0.50
2018-12-17T03:42:52.847Z,0.50
2018-12-17T03:45:34.128Z,0.50
2018-12-17T03:48:00.542Z,0.50
2018-12-17T03:50:27.778Z,0.60
2018-12-17T03:52:54.203Z,0.60
2018-12-17T03:55:35.650Z,0.60
2018-12-17T03:58:01.989Z,0.60
2018-12-17T04:00:28.366Z,0.70
2018-12-17T04:02:54.733Z,0.80
2018-12-17T04:05:21.257Z,0.80
2018-12-17T04:07:47.650Z,0.80
2018-12-17T04:10:14.055Z,0.80
2018-12-17T04:12:40.624Z,0.80
2018-12-17T04:15:07.159Z,0.70
2018-12-17T04:20:28.069Z,0.70
2018-12-17T04:22:54.440Z,0.60
2018-12-17T04:25:20.818Z,0.60
2018-12-17T04:27:47.191Z,0.60
2018-12-17T04:30:13.510Z,0.60
2018-12-17T04:32:39.967Z,0.60
2018-12-17T04:35:06.346Z,0.60
2018-12-17T04:37:32.777Z,0.60
2018-12-17T04:39:59.157Z,0.60
2018-12-17T04:42:25.484Z,0.60
2018-12-17T04:44:52.321Z,0.50
2018-12-17T04:47:18.810Z,0.50
2018-12-17T04:49:45.183Z,0.50
2018-12-17T04:52:11.573Z,0.40
2018-12-17T04:54:38.093Z,0.40
2018-12-17T04:57:04.500Z,0.40
2018-12-17T04:59:30.902Z,0.40
2018-12-17T05:01:57.291Z,0.40
2018-12-17T05:04:23.661Z,0.40
2018-12-17T05:06:50.065Z,0.40
2018-12-17T05:09:16.425Z,0.40
2018-12-17T05:11:42.747Z,0.40
2018-12-17T05:14:09.242Z,0.30
2018-12-17T05:16:35.685Z,0.40
2018-12-17T05:19:02.222Z,0.40
2018-12-17T05:21:28.634Z,0.30
2018-12-17T05:23:54.985Z,0.40
2018-12-17T05:26:21.353Z,0.40
2018-12-17T05:28:47.723Z,0.40
2018-12-17T05:31:14.095Z,0.40
2018-12-17T05:33:40.651Z,0.40
2018-12-17T05:36:07.036Z,0.30
2018-12-17T05:38:33.410Z,0.30
2018-12-17T05:40:59.862Z,0.30
2018-12-17T05:43:26.270Z,0.30
2018-12-17T05:45:52.628Z,0.30
2018-12-17T05:48:19.000Z,0.20
2018-12-17T05:50:45.382Z,0.20
2018-12-17T05:53:11.857Z,0.10
2018-12-17T05:55:38.461Z,0.20
2018-12-17T05:58:04.844Z,0.20
2018-12-17T06:00:32.086Z,0.20
2018-12-17T06:02:58.502Z,0.20
2018-12-17T06:05:24.899Z,0.20
2018-12-17T06:07:51.308Z,0.20
2018-12-17T06:10:17.785Z,0.20
2018-12-17T06:12:44.278Z,0.30
2018-12-17T06:15:10.734Z,0.20
2018-12-17T06:17:37.161Z,0.30
2018-12-17T06:20:04.573Z,0.30
2018-12-17T06:22:30.948Z,0.20
2018-12-17T06:24:57.482Z,0.20
2018-12-17T06:27:23.866Z,0.30
2018-12-17T06:29:50.261Z,0.30
2018-12-17T06:32:16.769Z,0.30
2018-12-17T06:34:43.101Z,0.30
2018-12-17T06:37:09.931Z,0.30
2018-12-17T06:39:36.336Z,0.20
2018-12-17T06:42:02.804Z,0.30
2018-12-17T06:44:29.240Z,0.30
2018-12-17T06:46:56.438Z,0.20
2018-12-17T06:49:22.880Z,0.30
2018-12-17T06:51:49.691Z,0.30
2018-12-17T06:54:16.445Z,0.30
2018-12-17T06:56:42.982Z,0.30
2018-12-17T06:59:09.425Z,0.30
2018-12-17T07:01:36.004Z,0.30
2018-12-17T07:04:02.504Z,0.30
2018-12-17T07:06:29.118Z,0.40
2018-12-17T07:08:55.501Z,0.40
2018-12-17T07:11:22.173Z,0.40
2018-12-17T07:13:49.207Z,0.40
2018-12-17T07:16:15.671Z,0.40
2018-12-17T07:18:42.176Z,0.40
2018-12-17T07:21:08.688Z,0.40
2018-12-17T07:26:29.914Z,0.40
2018-12-17T07:28:56.323Z,0.50
2018-12-17T07:31:22.709Z,0.50
2018-12-17T07:33:49.074Z,0.50
2018-12-17T07:36:30.856Z,0.50
2018-12-17T07:38:57.235Z,0.60
2018-12-17T07:41:23.657Z,0.60
2018-12-17T07:43:50.030Z,0.70
2018-12-17T07:46:16.485Z,0.70
2018-12-17T07:48:42.921Z,0.70
2018-12-17T07:51:09.319Z,0.70
2018-12-17T07:53:35.722Z,0.70
2018-12-17T07:56:02.184Z,0.70
2018-12-17T07:58:28.775Z,0.70
2018-12-17T08:00:55.221Z,0.70
2018-12-17T08:03:21.631Z,0.70
2018-12-17T08:05:48.122Z,0.80
2018-12-17T08:08:14.555Z,0.80
2018-12-17T08:10:40.939Z,0.80
2018-12-17T08:13:07.637Z,0.80
2018-12-17T08:15:34.184Z,0.80
2018-12-17T08:18:23.826Z,0.70
2018-12-17T08:20:50.564Z,0.70
2018-12-17T08:23:17.151Z,0.60
2018-12-17T08:25:43.508Z,0.60
2018-12-17T08:28:10.036Z,0.60
2018-12-17T08:30:36.420Z,0.60
2018-12-17T08:33:03.012Z,0.70
2018-12-17T08:35:29.426Z,0.70
2018-12-17T08:37:55.771Z,0.70
2018-12-17T08:40:22.141Z,0.60
2018-12-17T08:42:55.505Z,0.60
2018-12-17T08:45:22.179Z,0.60
2018-12-17T08:47:48.592Z,0.60
2018-12-17T08:50:14.958Z,0.60
2018-12-17T08:52:41.438Z,0.50
2018-12-17T08:55:07.866Z,0.50
2018-12-17T08:57:37.883Z,0.50
2018-12-17T09:00:10.976Z,0.50
2018-12-17T09:02:34.225Z,0.60
2018-12-17T09:05:01.402Z,0.60
2018-12-17T09:07:27.807Z,0.60
2018-12-17T09:09:54.437Z,0.60
2018-12-17T09:12:20.829Z,0.60
2018-12-17T09:14:47.214Z,0.60
2018-12-17T09:17:13.553Z,0.60
2018-12-17T09:19:40.001Z,0.60
2018-12-17T09:22:06.480Z,0.60
2018-12-17T09:24:32.854Z,0.40
2018-12-17T09:27:00.200Z,0.40
2018-12-17T09:29:26.595Z,0.40
2018-12-17T09:31:52.961Z,0.40
2018-12-17T09:34:19.343Z,0.40
2018-12-17T09:36:45.730Z,0.40
2018-12-17T09:39:12.206Z,0.30
2018-12-17T09:41:38.606Z,0.30
2018-12-17T09:44:05.092Z,0.20
2018-12-17T09:46:32.750Z,0.10
2018-12-17T09:48:59.326Z,0.20
2018-12-17T09:51:25.841Z,0.30
2018-12-17T09:53:53.045Z,0.50
2018-12-17T09:56:19.562Z,0.40
2018-12-17T09:58:45.983Z,0.40
2018-12-17T10:01:12.505Z,0.40
2018-12-17T10:03:38.910Z,0.50
2018-12-17T10:06:05.329Z,0.40
2018-12-17T10:08:33.792Z,0.40
2018-12-17T10:11:00.198Z,0.40
2018-12-17T10:13:26.642Z,0.50
2018-12-17T10:15:53.060Z,0.50
2018-12-17T10:18:19.484Z,0.60
2018-12-17T10:20:45.822Z,0.50
2018-12-17T10:23:12.385Z,0.60
2018-12-17T10:25:39.052Z,0.60
2018-12-17T10:28:05.553Z,0.50
2018-12-17T10:30:32.657Z,0.60
2018-12-17T10:33:00.215Z,0.60
2018-12-17T10:35:26.652Z,0.60
2018-12-17T10:37:53.037Z,0.60
2018-12-17T10:40:19.465Z,0.60
2018-12-17T10:42:45.843Z,0.70
2018-12-17T10:45:12.457Z,0.80
2018-12-17T10:47:38.862Z,0.90
2018-12-17T10:50:05.495Z,0.90
2018-12-17T10:52:31.967Z,1.00
2018-12-17T10:54:58.426Z,1.00
2018-12-17T10:57:24.816Z,1.00
2018-12-17T10:59:51.270Z,1.00
2018-12-17T11:05:11.284Z,1.00
2018-12-17T11:07:37.636Z,0.90
2018-12-17T11:10:05.517Z,0.90
2018-12-17T11:12:32.859Z,0.90
2018-12-17T11:15:00.257Z,0.80
2018-12-17T11:17:26.822Z,0.80
2018-12-17T11:19:53.168Z,0.90
2018-12-17T11:22:19.624Z,0.90
2018-12-17T11:24:45.984Z,0.90
2018-12-17T11:30:08.606Z,1.00
2018-12-17T11:32:35.026Z,1.00
2018-12-17T11:35:01.460Z,1.00
2018-12-17T11:37:27.942Z,1.00
2018-12-17T11:39:54.401Z,1.10
2018-12-17T11:42:21.094Z,1.10
2018-12-17T11:44:48.292Z,1.10
2018-12-17T11:47:14.744Z,1.10
2018-12-17T11:49:42.752Z,1.00
2018-12-17T11:52:09.800Z,1.00
2018-12-17T11:54:36.310Z,1.00
2018-12-17T12:00:07.711Z,1.10
2018-12-17T12:02:34.246Z,1.10
2018-12-17T12:05:00.654Z,1.10
2018-12-17T12:07:27.015Z,1.00
2018-12-17T12:09:53.666Z,0.90
2018-12-17T12:12:20.317Z,0.90
2018-12-17T12:14:49.001Z,1.10
2018-12-17T12:17:15.597Z,1.00
2018-12-17T12:19:42.861Z,1.10
2018-12-17T12:22:09.953Z,1.00
2018-12-17T12:24:41.064Z,0.90
2018-12-17T12:27:07.529Z,1.00
2018-12-17T12:29:33.876Z,1.00
2018-12-17T12:32:00.266Z,1.00
2018-12-17T12:34:26.622Z,0.80
2018-12-17T12:36:53.077Z,0.90
2018-12-17T12:39:19.568Z,0.90
2018-12-17T12:41:45.995Z,0.90
2018-12-17T12:44:12.404Z,0.80
2018-12-17T12:46:38.831Z,0.80
2018-12-17T12:49:05.228Z,0.90
2018-12-17T12:51:32.839Z,0.80
2018-12-17T12:53:59.405Z,0.80
2018-12-17T12:56:25.884Z,0.70
2018-12-17T12:58:52.414Z,0.60
2018-12-17T13:01:18.873Z,0.60
2018-12-17T13:03:45.262Z,0.60
2018-12-17T13:06:11.776Z,0.60
2018-12-17T13:08:38.212Z,0.60
2018-12-17T13:11:04.612Z,0.50
2018-12-17T13:13:30.962Z,0.70
2018-12-17T13:15:57.314Z,0.70
2018-12-17T13:18:23.718Z,0.80
2018-12-17T13:20:50.134Z,0.80
2018-12-17T13:23:16.576Z,0.70
2018-12-17T13:25:43.792Z,0.60
2018-12-17T13:28:10.257Z,0.60
2018-12-17T13:30:37.098Z,0.60
2018-12-17T13:33:03.517Z,0.60
2018-12-17T13:35:30.000Z,0.50
2018-12-17T13:40:29.640Z,0.40
2018-12-17T13:42:56.130Z,0.30
2018-12-17T13:45:22.664Z,0.30
2018-12-17T13:47:49.571Z,0.20
2018-12-17T13:50:22.163Z,0.20
2018-12-17T13:52:48.698Z,0.10
2018-12-17T13:55:15.625Z,0.10
2018-12-17T13:57:42.708Z,0.10
2018-12-17T14:00:11.780Z,0.10
2018-12-17T14:02:38.400Z,0.00
2018-12-17T14:05:05.005Z,0.00
2018-12-17T14:07:31.506Z,0.00
2018-12-17T14:10:03.985Z,0.00
2018-12-17T14:12:30.460Z,0.00
2018-12-17T14:14:57.097Z,0.00
2018-12-17T14:17:29.561Z,0.00
2018-12-17T14:20:01.786Z,0.00
2018-12-17T14:22:28.206Z,-0.10
2018-12-17T14:24:54.581Z,0.00
2018-12-17T14:27:21.043Z,0.00
2018-12-17T14:29:47.716Z,-0.10
2018-12-17T14:32:14.140Z,0.00
2018-12-17T14:34:42.006Z,-0.10
2018-12-17T14:37:08.364Z,-0.10
2018-12-17T14:39:34.825Z,-0.20
2018-12-17T14:42:01.741Z,-0.20
2018-12-17T14:44:33.726Z,-0.20
2018-12-17T14:47:00.194Z,-0.20
2018-12-17T14:49:26.700Z,-0.20
2018-12-17T14:51:53.218Z,-0.10
2018-12-17T14:54:19.805Z,-0.10
2018-12-17T14:56:46.211Z,-0.10
2018-12-17T14:59:12.686Z,-0.10
2018-12-17T15:01:39.079Z,0.00
2018-12-17T15:04:05.386Z,0.00
2018-12-17T15:06:31.809Z,-0.10
2018-12-17T15:08:58.292Z,-0.10
2018-12-17T15:11:24.748Z,-0.10
2018-12-17T15:13:51.320Z,-0.10
2018-12-17T15:16:17.830Z,-0.10
2018-12-17T15:18:44.384Z,-0.10
2018-12-17T15:21:11.010Z,-0.20
2018-12-17T15:23:37.683Z,-0.10
2018-12-17T15:26:04.181Z,-0.20
2018-12-17T15:28:30.738Z,-0.20
2018-12-17T15:30:57.303Z,-0.30
2018-12-17T15:33:23.714Z,-0.30
2018-12-17T15:35:50.262Z,-0.30
2018-12-17T15:38:17.575Z,-0.20
2018-12-17T15:40:44.143Z,-0.30
2018-12-17T15:43:10.615Z,-0.40
2018-12-17T15:45:37.846Z,-0.40
2018-12-17T15:48:04.271Z,-0.50
2018-12-17T15:50:30.682Z,-0.50
2018-12-17T15:52:57.076Z,-0.50
2018-12-17T15:55:25.458Z,-0.50
2018-12-17T15:57:51.959Z,-0.40
2018-12-17T16:00:18.474Z,-0.30
2018-12-17T16:02:45.082Z,-0.30
2018-12-17T16:05:26.506Z,-0.30
2018-12-17T16:07:53.063Z,-0.40
2018-12-17T16:10:19.730Z,-0.30
2018-12-17T16:12:46.812Z,-0.20
2018-12-17T16:15:13.318Z,-0.20
2018-12-17T16:17:40.312Z,-0.30
2018-12-17T16:20:07.129Z,-0.30
2018-12-17T16:22:33.810Z,-0.30
2018-12-17T16:25:00.230Z,-0.30
2018-12-17T16:27:26.771Z,-0.30
2018-12-17T16:29:53.453Z,-0.30
2018-12-17T16:32:20.021Z,-0.40
2018-12-17T16:34:46.679Z,-0.30
2018-12-17T16:37:13.151Z,-0.40
2018-12-17T16:39:39.667Z,-0.30
2018-12-17T16:42:06.107Z,-0.30
2018-12-17T16:44:32.619Z,-0.30
2018-12-17T16:46:59.074Z,-0.30
2018-12-17T16:49:25.579Z,-0.30
2018-12-17T16:51:52.016Z,-0.30
2018-12-17T16:54:18.633Z,-0.30
2018-12-17T16:56:45.042Z,-0.30
2018-12-17T16:59:11.608Z,-0.20
2018-12-17T17:01:38.285Z,-0.20
2018-12-17T17:04:04.699Z,-0.10
2018-12-17T17:06:31.267Z,-0.10
2018-12-17T17:08:58.930Z,-0.20
2018-12-17T17:11:25.595Z,-0.10
2018-12-17T17:13:52.057Z,-0.10
2018-12-17T17:16:18.655Z,-0.10
2018-12-17T17:18:45.689Z,-0.20
2018-12-17T17:21:13.164Z,-0.20
2018-12-17T17:23:39.731Z,-0.20
2018-12-17T17:26:06.149Z,-0.20
2018-12-17T17:28:32.511Z,-0.20
2018-12-17T17:30:59.006Z,-0.20
2018-12-17T17:33:25.810Z,-0.20
2018-12-17T17:35:52.586Z,-0.20
2018-12-17T17:38:19.110Z,-0.20
2018-12-17T17:40:45.562Z,-0.20
2018-12-17T17:43:11.981Z,-0.20
2018-12-17T17:45:38.470Z,-0.10
2018-12-17T17:48:04.843Z,-0.10
2018-12-17T17:50:31.270Z,-0.10
2018-12-17T17:52:57.739Z,-0.10
2018-12-17T17:55:24.165Z,-0.10
2018-12-17T17:57:50.781Z,-0.20
2018-12-17T18:00:17.410Z,-0.20
2018-12-17T18:02:43.842Z,-0.20
2018-12-17T18:05:10.262Z,-0.20
2018-12-17T18:07:36.902Z,-0.20
2018-12-17T18:10:06.133Z,-0.20
2018-12-17T18:12:32.644Z,-0.20
2018-12-17T18:14:59.677Z,-0.20
2018-12-17T18:17:27.102Z,-0.10
2018-12-17T18:19:53.843Z,-0.10
2018-12-17T18:22:20.378Z,-0.20
2018-12-17T18:24:46.872Z,-0.10
2018-12-17T18:27:13.399Z,-0.10
2018-12-17T18:29:39.840Z,0.00
2018-12-17T18:32:06.220Z,0.00
2018-12-17T18:34:32.836Z,0.00
2018-12-17T18:39:45.835Z,0.00
2018-12-17T18:42:12.809Z,0.00
2018-12-17T18:44:40.374Z,0.00
2018-12-17T18:47:06.822Z,0.00
2018-12-17T18:49:33.454Z,0.00
2018-12-17T18:51:59.964Z,0.10
2018-12-17T18:54:26.337Z,0.10
2018-12-17T18:56:52.941Z,0.10
2018-12-17T18:59:19.738Z,0.10
2018-12-17T19:01:46.135Z,0.10
2018-12-17T19:07:08.035Z,0.10
2018-12-17T19:09:34.438Z,0.10
2018-12-17T19:12:01.011Z,0.10
2018-12-17T19:14:27.575Z,0.10
2018-12-17T19:16:54.281Z,0.10
2018-12-17T19:19:21.762Z,0.20
2018-12-17T19:21:48.683Z,0.20
2018-12-17T19:24:15.314Z,0.10
2018-12-17T19:26:41.812Z,0.10
2018-12-17T19:29:09.030Z,0.10
2018-12-17T19:31:35.413Z,0.10
2018-12-17T19:34:01.828Z,0.10
2018-12-17T19:36:28.193Z,0.10
2018-12-17T19:38:54.637Z,0.10
2018-12-17T19:41:21.156Z,0.10
2018-12-17T19:43:47.549Z,0.20
2018-12-17T19:46:13.976Z,0.20
2018-12-17T19:48:40.661Z,0.20
2018-12-17T19:51:07.052Z,0.20
2018-12-17T19:53:33.481Z,0.30
2018-12-17T19:56:00.897Z,0.20
2018-12-17T19:58:28.538Z,0.20
2018-12-17T20:00:55.135Z,0.20
2018-12-17T20:03:22.646Z,0.20
2018-12-17T20:05:49.386Z,0.30
2018-12-17T20:08:16.126Z,0.30
2018-12-17T20:10:42.549Z,0.30
2018-12-17T20:13:08.904Z,0.30
2018-12-17T20:15:35.324Z,0.20
2018-12-17T20:18:01.802Z,0.30
2018-12-17T20:20:28.217Z,0.30
2018-12-17T20:22:54.595Z,0.30
2018-12-17T20:25:20.937Z,0.30
2018-12-17T20:27:47.319Z,0.30
2018-12-17T20:30:13.724Z,0.30
2018-12-17T20:32:40.133Z,0.30
2018-12-17T20:35:07.068Z,0.30
2018-12-17T20:37:33.474Z,0.20
2018-12-17T20:40:00.065Z,0.20
2018-12-17T20:42:27.615Z,0.20
2018-12-17T20:44:55.099Z,0.20
2018-12-17T20:47:22.332Z,0.20
2018-12-17T20:49:48.709Z,0.20
2018-12-17T20:52:15.389Z,0.20
2018-12-17T20:54:41.841Z,0.20
2018-12-17T20:57:08.907Z,0.30
2018-12-17T20:59:35.526Z,0.30
2018-12-17T21:02:02.015Z,0.30
2018-12-17T21:07:22.595Z,0.30
2018-12-17T21:09:49.858Z,0.30
2018-12-17T21:12:16.481Z,0.30
2018-12-17T21:14:42.805Z,0.30
2018-12-17T21:17:09.175Z,0.30
2018-12-17T21:19:36.449Z,0.30
2018-12-17T21:22:06.871Z,0.40
2018-12-17T21:24:33.929Z,0.30
2018-12-17T21:27:00.438Z,0.40
2018-12-17T21:29:26.782Z,0.40
2018-12-17T21:31:53.233Z,0.30
2018-12-17T21:34:19.785Z,0.30
2018-12-17T21:36:46.228Z,0.30
2018-12-17T21:39:12.769Z,0.40
2018-12-17T21:41:39.554Z,0.40
2018-12-17T21:44:06.243Z,0.40
2018-12-17T21:46:34.002Z,0.40
2018-12-17T21:49:01.806Z,0.40
2018-12-17T21:51:28.341Z,0.40
2018-12-17T21:53:54.751Z,0.40
2018-12-17T21:56:21.310Z,0.40
2018-12-17T21:58:47.721Z,0.40
2018-12-17T22:01:14.136Z,0.40
2018-12-17T22:03:40.706Z,0.40
2018-12-17T22:06:07.723Z,0.40
2018-12-17T22:08:34.514Z,0.40
2018-12-17T22:11:01.337Z,0.40
2018-12-17T22:13:28.101Z,0.40
2018-12-17T22:15:54.554Z,0.50
2018-12-17T22:18:21.000Z,0.40
2018-12-17T22:23:41.838Z,0.40
2018-12-17T22:26:08.313Z,0.40
2018-12-17T22:28:34.644Z,0.50
2018-12-17T22:31:01.629Z,0.50
2018-12-17T22:33:27.992Z,0.50
2018-12-17T22:35:54.414Z,0.50
2018-12-17T22:38:21.064Z,0.40
2018-12-17T22:40:47.498Z,0.40
2018-12-17T22:43:13.906Z,0.40
2018-12-17T22:45:41.198Z,0.40
2018-12-17T22:48:08.745Z,0.40
2018-12-17T22:50:35.318Z,0.40
2018-12-17T22:53:02.676Z,0.50
2018-12-17T22:55:29.212Z,0.50
2018-12-17T22:57:55.774Z,0.50
2018-12-17T23:00:22.557Z,0.50
2018-12-17T23:02:48.991Z,0.60
2018-12-17T23:05:15.861Z,0.50
2018-12-17T23:07:42.350Z,0.50
2018-12-17T23:10:20.916Z,0.50
2018-12-17T23:12:59.721Z,0.50
2018-12-17T23:15:38.091Z,0.50
2018-12-17T23:18:04.295Z,0.40
2018-12-17T23:20:30.776Z,0.50
2018-12-17T23:22:57.276Z,0.40
2018-12-17T23:25:23.673Z,0.50
2018-12-17T23:27:50.429Z,0.50
2018-12-17T23:30:17.089Z,0.50
2018-12-17T23:32:43.507Z,0.40
2018-12-17T23:35:09.905Z,0.40
2018-12-17T23:37:36.293Z,0.50
2018-12-17T23:40:03.934Z,0.50
2018-12-17T23:42:30.491Z,0.50
2018-12-17T23:44:57.767Z,0.50
2018-12-17T23:47:24.109Z,0.40
2018-12-17T23:49:50.473Z,0.40
2018-12-17T23:52:16.880Z,0.40
2018-12-17T23:54:43.209Z,0.40
2018-12-17T23:57:09.590Z,0.40
2018-12-17T23:59:35.989Z,0.40
